sensor_id;sensor_type;location;lat;lon;timestamp;temperature;humidity
69225;DHT22;56333;51.306;17.056;2023-05-07T00:01:37;9.27;83.53
69225;DHT22;56333;51.306;17.056;2023-05-07T00:03:08;9.28;83.60
69225;DHT22;56333;51.306;17.056;2023-05-07T00:04:37;9.27;83.57
69225;DHT22;56333;51.306;17.056;2023-05-07T00:06:06;9.29;83.50
69225;DHT22;56333;51.306;17.056;2023-05-07T00:07:37;9.31;83.47
69225;DHT22;56333;51.306;17.056;2023-05-07T00:09:06;9.28;83.93
69225;DHT22;56333;51.306;17.056;2023-05-07T00:10:35;9.32;83.88
69225;DHT22;56333;51.306;17.056;2023-05-07T00:12:04;9.34;83.80
69225;DHT22;56333;51.306;17.056;2023-05-07T00:13:34;9.33;83.68
69225;DHT22;56333;51.306;17.056;2023-05-07T00:15:03;9.32;83.57
69225;DHT22;56333;51.306;17.056;2023-05-07T00:16:34;9.28;83.47
69225;DHT22;56333;51.306;17.056;2023-05-07T00:18:03;9.29;83.28
69225;DHT22;56333;51.306;17.056;2023-05-07T00:19:32;9.28;83.47
69225;DHT22;56333;51.306;17.056;2023-05-07T00:21:01;9.29;83.45
69225;DHT22;56333;51.306;17.056;2023-05-07T00:22:30;9.31;83.57
69225;DHT22;56333;51.306;17.056;2023-05-07T00:23:59;9.31;83.63
69225;DHT22;56333;51.306;17.056;2023-05-07T00:25:28;9.33;83.57
69225;DHT22;56333;51.306;17.056;2023-05-07T00:26:57;9.33;83.65
69225;DHT22;56333;51.306;17.056;2023-05-07T00:28:25;9.34;83.70
69225;DHT22;56333;51.306;17.056;2023-05-07T00:29:55;9.31;83.82
69225;DHT22;56333;51.306;17.056;2023-05-07T00:31:24;9.33;83.65
69225;DHT22;56333;51.306;17.056;2023-05-07T00:32:53;9.29;83.90
69225;DHT22;56333;51.306;17.056;2023-05-07T00:34:21;9.32;83.85
69225;DHT22;56333;51.306;17.056;2023-05-07T00:35:50;9.35;83.75
69225;DHT22;56333;51.306;17.056;2023-05-07T00:37:19;9.39;83.72
69225;DHT22;56333;51.306;17.056;2023-05-07T00:38:48;9.42;83.68
69225;DHT22;56333;51.306;17.056;2023-05-07T00:40:17;9.44;83.70
69225;DHT22;56333;51.306;17.056;2023-05-07T00:41:46;9.44;83.47
69225;DHT22;56333;51.306;17.056;2023-05-07T00:43:15;9.44;83.25
69225;DHT22;56333;51.306;17.056;2023-05-07T00:44:44;9.39;83.15
69225;DHT22;56333;51.306;17.056;2023-05-07T00:46:13;9.32;83.47
69225;DHT22;56333;51.306;17.056;2023-05-07T00:47:43;9.34;83.22
69225;DHT22;56333;51.306;17.056;2023-05-07T00:49:12;9.32;83.22
69225;DHT22;56333;51.306;17.056;2023-05-07T00:50:42;9.28;83.53
69225;DHT22;56333;51.306;17.056;2023-05-07T00:52:13;9.31;83.38
69225;DHT22;56333;51.306;17.056;2023-05-07T00:53:42;9.29;83.30
69225;DHT22;56333;51.306;17.056;2023-05-07T00:55:11;9.26;83.38
69225;DHT22;56333;51.306;17.056;2023-05-07T00:56:40;9.29;83.40
69225;DHT22;56333;51.306;17.056;2023-05-07T00:58:09;9.29;83.38
69225;DHT22;56333;51.306;17.056;2023-05-07T00:59:38;9.29;83.35
69225;DHT22;56333;51.306;17.056;2023-05-07T01:01:08;9.28;83.40
69225;DHT22;56333;51.306;17.056;2023-05-07T01:02:39;9.27;83.30
69225;DHT22;56333;51.306;17.056;2023-05-07T01:04:06;9.19;83.25
69225;DHT22;56333;51.306;17.056;2023-05-07T01:05:36;9.21;83.38
69225;DHT22;56333;51.306;17.056;2023-05-07T01:07:05;9.20;83.32
69225;DHT22;56333;51.306;17.056;2023-05-07T01:08:34;9.20;83.32
69225;DHT22;56333;51.306;17.056;2023-05-07T01:10:04;9.18;83.40
69225;DHT22;56333;51.306;17.056;2023-05-07T01:11:35;9.19;83.38
69225;DHT22;56333;51.306;17.056;2023-05-07T01:13:02;9.16;83.45
69225;DHT22;56333;51.306;17.056;2023-05-07T01:14:33;9.10;83.63
69225;DHT22;56333;51.306;17.056;2023-05-07T01:16:02;9.12;83.55
69225;DHT22;56333;51.306;17.056;2023-05-07T01:17:34;9.14;83.30
69225;DHT22;56333;51.306;17.056;2023-05-07T01:19:05;9.08;83.28
69225;DHT22;56333;51.306;17.056;2023-05-07T01:20:38;9.04;83.30
69225;DHT22;56333;51.306;17.056;2023-05-07T01:22:09;9.06;83.22
69225;DHT22;56333;51.306;17.056;2023-05-07T01:23:47;9.05;83.32
69225;DHT22;56333;51.306;17.056;2023-05-07T01:25:16;9.06;83.25
69225;DHT22;56333;51.306;17.056;2023-05-07T01:26:48;9.06;83.38
69225;DHT22;56333;51.306;17.056;2023-05-07T01:28:18;9.03;83.22
69225;DHT22;56333;51.306;17.056;2023-05-07T01:29:48;9.03;83.30
69225;DHT22;56333;51.306;17.056;2023-05-07T01:31:17;9.00;83.57
69225;DHT22;56333;51.306;17.056;2023-05-07T01:32:50;9.03;83.47
69225;DHT22;56333;51.306;17.056;2023-05-07T01:34:23;9.07;83.38
69225;DHT22;56333;51.306;17.056;2023-05-07T01:35:55;9.04;83.55
69225;DHT22;56333;51.306;17.056;2023-05-07T01:37:28;9.04;83.53
69225;DHT22;56333;51.306;17.056;2023-05-07T01:38:57;9.06;83.43
69225;DHT22;56333;51.306;17.056;2023-05-07T01:40:28;9.10;83.32
69225;DHT22;56333;51.306;17.056;2023-05-07T01:41:57;9.10;83.28
69225;DHT22;56333;51.306;17.056;2023-05-07T01:43:27;9.09;83.15
69225;DHT22;56333;51.306;17.056;2023-05-07T01:44:57;9.05;83.07
69225;DHT22;56333;51.306;17.056;2023-05-07T01:46:27;9.02;83.10
69225;DHT22;56333;51.306;17.056;2023-05-07T01:47:58;9.03;82.78
69225;DHT22;56333;51.306;17.056;2023-05-07T01:49:27;9.00;82.93
69225;DHT22;56333;51.306;17.056;2023-05-07T01:50:57;8.96;83.13
69225;DHT22;56333;51.306;17.056;2023-05-07T01:52:27;8.97;83.05
69225;DHT22;56333;51.306;17.056;2023-05-07T01:53:56;8.97;82.90
69225;DHT22;56333;51.306;17.056;2023-05-07T01:55:26;8.95;82.85
69225;DHT22;56333;51.306;17.056;2023-05-07T01:56:55;8.92;82.93
69225;DHT22;56333;51.306;17.056;2023-05-07T01:58:25;8.97;83.15
69225;DHT22;56333;51.306;17.056;2023-05-07T01:59:54;9.01;83.13
69225;DHT22;56333;51.306;17.056;2023-05-07T02:01:23;9.04;83.13
69225;DHT22;56333;51.306;17.056;2023-05-07T02:02:52;9.08;83.03
69225;DHT22;56333;51.306;17.056;2023-05-07T02:04:28;9.07;82.82
69225;DHT22;56333;51.306;17.056;2023-05-07T02:05:57;9.09;82.72
69225;DHT22;56333;51.306;17.056;2023-05-07T02:07:30;9.09;82.70
69225;DHT22;56333;51.306;17.056;2023-05-07T02:08:59;9.10;82.53
69225;DHT22;56333;51.306;17.056;2023-05-07T02:10:27;9.06;82.45
69225;DHT22;56333;51.306;17.056;2023-05-07T02:11:57;9.02;82.30
69225;DHT22;56333;51.306;17.056;2023-05-07T02:13:28;9.00;82.18
69225;DHT22;56333;51.306;17.056;2023-05-07T02:15:00;8.97;82.28
69225;DHT22;56333;51.306;17.056;2023-05-07T02:16:29;8.93;82.43
69225;DHT22;56333;51.306;17.056;2023-05-07T02:18:02;8.93;82.57
69225;DHT22;56333;51.306;17.056;2023-05-07T02:19:33;8.92;82.60
69225;DHT22;56333;51.306;17.056;2023-05-07T02:21:02;8.93;82.75
69225;DHT22;56333;51.306;17.056;2023-05-07T02:22:33;8.95;82.82
69225;DHT22;56333;51.306;17.056;2023-05-07T02:24:02;8.97;82.50
69225;DHT22;56333;51.306;17.056;2023-05-07T02:25:32;8.94;82.63
69225;DHT22;56333;51.306;17.056;2023-05-07T02:27:01;8.93;82.57
69225;DHT22;56333;51.306;17.056;2023-05-07T02:28:30;8.91;82.50
69225;DHT22;56333;51.306;17.056;2023-05-07T02:30:01;8.90;82.50
69225;DHT22;56333;51.306;17.056;2023-05-07T02:31:32;8.89;82.60
69225;DHT22;56333;51.306;17.056;2023-05-07T02:33:01;8.90;82.63
69225;DHT22;56333;51.306;17.056;2023-05-07T02:34:30;8.91;82.53
69225;DHT22;56333;51.306;17.056;2023-05-07T02:36:06;8.93;82.50
69225;DHT22;56333;51.306;17.056;2023-05-07T02:37:45;8.94;82.68
69225;DHT22;56333;51.306;17.056;2023-05-07T02:39:13;8.97;82.60
69225;DHT22;56333;51.306;17.056;2023-05-07T02:40:44;8.99;82.50
69225;DHT22;56333;51.306;17.056;2023-05-07T02:42:13;9.00;82.53
69225;DHT22;56333;51.306;17.056;2023-05-07T02:43:42;9.03;82.32
69225;DHT22;56333;51.306;17.056;2023-05-07T02:45:12;9.04;82.10
69225;DHT22;56333;51.306;17.056;2023-05-07T02:46:41;9.02;82.00
69225;DHT22;56333;51.306;17.056;2023-05-07T02:48:10;9.02;82.00
69225;DHT22;56333;51.306;17.056;2023-05-07T02:49:39;9.02;82.00
69225;DHT22;56333;51.306;17.056;2023-05-07T02:51:08;9.02;82.10
69225;DHT22;56333;51.306;17.056;2023-05-07T02:52:38;9.02;82.10
69225;DHT22;56333;51.306;17.056;2023-05-07T02:54:07;9.00;82.03
69225;DHT22;56333;51.306;17.056;2023-05-07T02:55:36;8.98;82.20
69225;DHT22;56333;51.306;17.056;2023-05-07T02:57:06;8.99;82.20
69225;DHT22;56333;51.306;17.056;2023-05-07T02:58:35;9.01;82.15
69225;DHT22;56333;51.306;17.056;2023-05-07T03:00:14;8.99;82.25
69225;DHT22;56333;51.306;17.056;2023-05-07T03:01:54;9.01;82.20
69225;DHT22;56333;51.306;17.056;2023-05-07T03:03:23;9.00;82.25
69225;DHT22;56333;51.306;17.056;2023-05-07T03:04:52;8.98;82.20
69225;DHT22;56333;51.306;17.056;2023-05-07T03:06:21;9.00;82.13
69225;DHT22;56333;51.306;17.056;2023-05-07T03:07:50;9.02;82.10
69225;DHT22;56333;51.306;17.056;2023-05-07T03:09:19;9.03;82.03
69225;DHT22;56333;51.306;17.056;2023-05-07T03:10:48;9.04;82.07
69225;DHT22;56333;51.306;17.056;2023-05-07T03:12:17;9.07;82.13
69225;DHT22;56333;51.306;17.056;2023-05-07T03:13:46;9.07;81.90
69225;DHT22;56333;51.306;17.056;2023-05-07T03:15:16;9.06;81.65
69225;DHT22;56333;51.306;17.056;2023-05-07T03:16:46;9.03;81.57
69225;DHT22;56333;51.306;17.056;2023-05-07T03:18:16;9.01;81.35
69225;DHT22;56333;51.306;17.056;2023-05-07T03:19:45;8.98;81.55
69225;DHT22;56333;51.306;17.056;2023-05-07T03:21:14;8.96;81.63
69225;DHT22;56333;51.306;17.056;2023-05-07T03:22:43;8.92;81.88
69225;DHT22;56333;51.306;17.056;2023-05-07T03:24:12;8.97;81.97
69225;DHT22;56333;51.306;17.056;2023-05-07T03:25:41;8.94;81.93
69225;DHT22;56333;51.306;17.056;2023-05-07T03:27:10;8.91;82.18
69225;DHT22;56333;51.306;17.056;2023-05-07T03:28:39;8.88;82.13
69225;DHT22;56333;51.306;17.056;2023-05-07T03:30:11;8.89;81.80
69225;DHT22;56333;51.306;17.056;2023-05-07T03:31:40;8.83;81.70
69225;DHT22;56333;51.306;17.056;2023-05-07T03:33:10;8.76;81.82
69225;DHT22;56333;51.306;17.056;2023-05-07T03:34:39;8.71;82.03
69225;DHT22;56333;51.306;17.056;2023-05-07T03:36:09;8.68;82.03
69225;DHT22;56333;51.306;17.056;2023-05-07T03:37:37;8.70;82.07
69225;DHT22;56333;51.306;17.056;2023-05-07T03:39:07;8.67;82.18
69225;DHT22;56333;51.306;17.056;2023-05-07T03:40:37;8.63;82.35
69225;DHT22;56333;51.306;17.056;2023-05-07T03:42:06;8.61;82.45
69225;DHT22;56333;51.306;17.056;2023-05-07T03:43:36;8.65;82.43
69225;DHT22;56333;51.306;17.056;2023-05-07T03:45:09;8.65;82.35
69225;DHT22;56333;51.306;17.056;2023-05-07T03:46:40;8.67;82.53
69225;DHT22;56333;51.306;17.056;2023-05-07T03:48:09;8.73;82.43
69225;DHT22;56333;51.306;17.056;2023-05-07T03:49:38;8.71;82.20
69225;DHT22;56333;51.306;17.056;2023-05-07T03:51:07;8.73;82.07
69225;DHT22;56333;51.306;17.056;2023-05-07T03:52:37;8.71;82.03
69225;DHT22;56333;51.306;17.056;2023-05-07T03:54:06;8.71;81.90
69225;DHT22;56333;51.306;17.056;2023-05-07T03:55:36;8.67;81.88
69225;DHT22;56333;51.306;17.056;2023-05-07T03:57:05;8.65;82.07
69225;DHT22;56333;51.306;17.056;2023-05-07T03:58:34;8.67;82.13
69225;DHT22;56333;51.306;17.056;2023-05-07T04:00:07;8.69;82.10
69225;DHT22;56333;51.306;17.056;2023-05-07T04:01:47;8.72;82.10
69225;DHT22;56333;51.306;17.056;2023-05-07T04:03:16;8.74;82.18
69225;DHT22;56333;51.306;17.056;2023-05-07T04:04:45;8.77;81.95
69225;DHT22;56333;51.306;17.056;2023-05-07T04:06:15;8.75;81.80
69225;DHT22;56333;51.306;17.056;2023-05-07T04:07:45;8.76;81.65
69225;DHT22;56333;51.306;17.056;2023-05-07T04:09:17;8.73;81.68
69225;DHT22;56333;51.306;17.056;2023-05-07T04:10:46;8.75;81.53
69225;DHT22;56333;51.306;17.056;2023-05-07T04:12:16;8.73;81.63
69225;DHT22;56333;51.306;17.056;2023-05-07T04:13:45;8.75;81.70
69225;DHT22;56333;51.306;17.056;2023-05-07T04:15:15;8.77;81.82
69225;DHT22;56333;51.306;17.056;2023-05-07T04:16:45;8.73;81.85
69225;DHT22;56333;51.306;17.056;2023-05-07T04:18:14;8.77;81.70
69225;DHT22;56333;51.306;17.056;2023-05-07T04:19:44;8.79;81.80
69225;DHT22;56333;51.306;17.056;2023-05-07T04:21:16;8.81;82.00
69225;DHT22;56333;51.306;17.056;2023-05-07T04:22:47;8.87;81.93
69225;DHT22;56333;51.306;17.056;2023-05-07T04:24:16;8.91;81.90
69225;DHT22;56333;51.306;17.056;2023-05-07T04:25:46;8.91;81.78
69225;DHT22;56333;51.306;17.056;2023-05-07T04:27:19;8.93;81.57
69225;DHT22;56333;51.306;17.056;2023-05-07T04:28:50;8.94;81.45
69225;DHT22;56333;51.306;17.056;2023-05-07T04:30:19;8.94;81.25
69225;DHT22;56333;51.306;17.056;2023-05-07T04:31:48;8.94;81.15
69225;DHT22;56333;51.306;17.056;2023-05-07T04:33:17;8.94;80.90
69225;DHT22;56333;51.306;17.056;2023-05-07T04:34:46;8.90;80.90
69225;DHT22;56333;51.306;17.056;2023-05-07T04:36:15;8.89;81.07
69225;DHT22;56333;51.306;17.056;2023-05-07T04:37:50;8.90;81.07
69225;DHT22;56333;51.306;17.056;2023-05-07T04:39:19;8.89;81.15
69225;DHT22;56333;51.306;17.056;2023-05-07T04:40:48;8.89;81.22
69225;DHT22;56333;51.306;17.056;2023-05-07T04:42:19;8.93;81.20
69225;DHT22;56333;51.306;17.056;2023-05-07T04:43:49;8.96;81.03
69225;DHT22;56333;51.306;17.056;2023-05-07T04:45:19;8.91;80.72
69225;DHT22;56333;51.306;17.056;2023-05-07T04:46:48;8.92;80.70
69225;DHT22;56333;51.306;17.056;2023-05-07T04:48:18;8.91;80.57
69225;DHT22;56333;51.306;17.056;2023-05-07T04:49:47;8.91;80.47
69225;DHT22;56333;51.306;17.056;2023-05-07T04:51:16;8.91;80.45
69225;DHT22;56333;51.306;17.056;2023-05-07T04:52:45;8.93;80.53
69225;DHT22;56333;51.306;17.056;2023-05-07T04:54:15;8.95;80.65
69225;DHT22;56333;51.306;17.056;2023-05-07T04:55:45;8.99;80.70
69225;DHT22;56333;51.306;17.056;2023-05-07T04:57:13;9.05;80.45
69225;DHT22;56333;51.306;17.056;2023-05-07T04:58:42;9.02;80.35
69225;DHT22;56333;51.306;17.056;2023-05-07T05:00:12;9.05;80.32
69225;DHT22;56333;51.306;17.056;2023-05-07T05:01:44;9.02;80.07
69225;DHT22;56333;51.306;17.056;2023-05-07T05:03:13;9.02;80.03
69225;DHT22;56333;51.306;17.056;2023-05-07T05:04:41;9.04;79.93
69225;DHT22;56333;51.306;17.056;2023-05-07T05:06:11;9.02;79.82
69225;DHT22;56333;51.306;17.056;2023-05-07T05:07:39;9.00;79.93
69225;DHT22;56333;51.306;17.056;2023-05-07T05:09:09;9.00;80.10
69225;DHT22;56333;51.306;17.056;2023-05-07T05:10:39;8.99;80.10
69225;DHT22;56333;51.306;17.056;2023-05-07T05:12:07;9.02;80.18
69225;DHT22;56333;51.306;17.056;2023-05-07T05:13:36;9.04;80.05
69225;DHT22;56333;51.306;17.056;2023-05-07T05:15:12;9.07;80.13
69225;DHT22;56333;51.306;17.056;2023-05-07T05:16:41;9.09;79.88
69225;DHT22;56333;51.306;17.056;2023-05-07T05:18:10;9.09;79.70
69225;DHT22;56333;51.306;17.056;2023-05-07T05:19:40;9.10;79.57
69225;DHT22;56333;51.306;17.056;2023-05-07T05:21:09;9.10;79.40
69225;DHT22;56333;51.306;17.056;2023-05-07T05:22:38;9.06;79.28
69225;DHT22;56333;51.306;17.056;2023-05-07T05:24:08;9.04;79.47
69225;DHT22;56333;51.306;17.056;2023-05-07T05:25:37;9.05;79.63
69225;DHT22;56333;51.306;17.056;2023-05-07T05:27:07;9.09;79.63
69225;DHT22;56333;51.306;17.056;2023-05-07T05:28:36;9.10;79.57
69225;DHT22;56333;51.306;17.056;2023-05-07T05:30:07;9.11;79.38
69225;DHT22;56333;51.306;17.056;2023-05-07T05:31:39;9.08;79.20
69225;DHT22;56333;51.306;17.056;2023-05-07T05:33:08;9.10;78.95
69225;DHT22;56333;51.306;17.056;2023-05-07T05:34:36;9.06;78.88
69225;DHT22;56333;51.306;17.056;2023-05-07T05:36:07;9.06;78.78
69225;DHT22;56333;51.306;17.056;2023-05-07T05:37:37;9.05;78.70
69225;DHT22;56333;51.306;17.056;2023-05-07T05:39:06;9.05;78.78
69225;DHT22;56333;51.306;17.056;2023-05-07T05:40:35;9.05;78.80
69225;DHT22;56333;51.306;17.056;2023-05-07T05:42:04;9.04;78.90
69225;DHT22;56333;51.306;17.056;2023-05-07T05:43:34;9.06;78.88
69225;DHT22;56333;51.306;17.056;2023-05-07T05:45:03;9.05;78.97
69225;DHT22;56333;51.306;17.056;2023-05-07T05:46:34;9.07;79.05
69225;DHT22;56333;51.306;17.056;2023-05-07T05:48:04;9.10;79.00
69225;DHT22;56333;51.306;17.056;2023-05-07T05:49:34;9.10;78.78
69225;DHT22;56333;51.306;17.056;2023-05-07T05:51:03;9.09;78.80
69225;DHT22;56333;51.306;17.056;2023-05-07T05:52:32;9.09;78.75
69225;DHT22;56333;51.306;17.056;2023-05-07T05:54:01;9.09;78.65
69225;DHT22;56333;51.306;17.056;2023-05-07T05:55:30;9.09;78.82
69225;DHT22;56333;51.306;17.056;2023-05-07T05:56:59;9.06;79.03
69225;DHT22;56333;51.306;17.056;2023-05-07T05:58:29;9.06;79.13
69225;DHT22;56333;51.306;17.056;2023-05-07T06:00:01;9.06;79.22
69225;DHT22;56333;51.306;17.056;2023-05-07T06:01:43;9.06;79.45
69225;DHT22;56333;51.306;17.056;2023-05-07T06:03:12;9.07;79.57
69225;DHT22;56333;51.306;17.056;2023-05-07T06:04:41;9.10;79.50
69225;DHT22;56333;51.306;17.056;2023-05-07T06:06:12;9.12;79.20
69225;DHT22;56333;51.306;17.056;2023-05-07T06:07:41;9.09;79.07
69225;DHT22;56333;51.306;17.056;2023-05-07T06:09:11;9.09;78.75
69225;DHT22;56333;51.306;17.056;2023-05-07T06:10:41;9.06;78.78
69225;DHT22;56333;51.306;17.056;2023-05-07T06:12:10;9.06;78.85
69225;DHT22;56333;51.306;17.056;2023-05-07T06:13:39;9.08;79.13
69225;DHT22;56333;51.306;17.056;2023-05-07T06:15:10;9.12;79.25
69225;DHT22;56333;51.306;17.056;2023-05-07T06:16:39;9.18;79.18
69225;DHT22;56333;51.306;17.056;2023-05-07T06:18:09;9.21;79.00
69225;DHT22;56333;51.306;17.056;2023-05-07T06:19:38;9.22;78.70
69225;DHT22;56333;51.306;17.056;2023-05-07T06:21:07;9.20;78.32
69225;DHT22;56333;51.306;17.056;2023-05-07T06:22:37;9.17;78.03
69225;DHT22;56333;51.306;17.056;2023-05-07T06:24:07;9.15;77.85
69225;DHT22;56333;51.306;17.056;2023-05-07T06:25:36;9.11;77.75
69225;DHT22;56333;51.306;17.056;2023-05-07T06:27:05;9.12;77.85
69225;DHT22;56333;51.306;17.056;2023-05-07T06:28:34;9.09;77.88
69225;DHT22;56333;51.306;17.056;2023-05-07T06:30:08;9.09;78.05
69225;DHT22;56333;51.306;17.056;2023-05-07T06:31:38;9.12;78.07
69225;DHT22;56333;51.306;17.056;2023-05-07T06:33:07;9.16;77.82
69225;DHT22;56333;51.306;17.056;2023-05-07T06:34:36;9.17;77.85
69225;DHT22;56333;51.306;17.056;2023-05-07T06:36:07;9.13;77.10
69225;DHT22;56333;51.306;17.056;2023-05-07T06:37:37;9.18;77.28
69225;DHT22;56333;51.306;17.056;2023-05-07T06:39:13;9.18;76.93
69225;DHT22;56333;51.306;17.056;2023-05-07T06:40:42;9.17;76.88
69225;DHT22;56333;51.306;17.056;2023-05-07T06:42:15;9.15;76.85
69225;DHT22;56333;51.306;17.056;2023-05-07T06:43:45;9.13;76.95
69225;DHT22;56333;51.306;17.056;2023-05-07T06:45:28;9.15;76.97
69225;DHT22;56333;51.306;17.056;2023-05-07T06:46:57;9.15;76.80
69225;DHT22;56333;51.306;17.056;2023-05-07T06:48:26;9.15;76.60
69225;DHT22;56333;51.306;17.056;2023-05-07T06:49:59;9.16;76.47
69225;DHT22;56333;51.306;17.056;2023-05-07T06:51:28;9.14;76.35
69225;DHT22;56333;51.306;17.056;2023-05-07T06:53:00;9.16;76.50
69225;DHT22;56333;51.306;17.056;2023-05-07T06:54:30;9.16;76.63
69225;DHT22;56333;51.306;17.056;2023-05-07T06:56:00;9.20;76.63
69225;DHT22;56333;51.306;17.056;2023-05-07T06:57:30;9.24;76.75
69225;DHT22;56333;51.306;17.056;2023-05-07T06:58:59;9.28;76.60
69225;DHT22;56333;51.306;17.056;2023-05-07T07:00:32;9.30;76.50
69225;DHT22;56333;51.306;17.056;2023-05-07T07:02:02;9.30;76.45
69225;DHT22;56333;51.306;17.056;2023-05-07T07:03:31;9.33;76.32
69225;DHT22;56333;51.306;17.056;2023-05-07T07:05:00;9.32;76.15
69225;DHT22;56333;51.306;17.056;2023-05-07T07:06:30;9.30;76.18
69225;DHT22;56333;51.306;17.056;2023-05-07T07:07:59;9.32;76.20
69225;DHT22;56333;51.306;17.056;2023-05-07T07:09:29;9.31;76.43
69225;DHT22;56333;51.306;17.056;2023-05-07T07:10:58;9.35;76.60
69225;DHT22;56333;51.306;17.056;2023-05-07T07:12:28;9.42;76.65
69225;DHT22;56333;51.306;17.056;2023-05-07T07:13:57;9.51;76.50
69225;DHT22;56333;51.306;17.056;2023-05-07T07:15:27;9.58;76.28
69225;DHT22;56333;51.306;17.056;2023-05-07T07:16:56;9.68;76.13
69225;DHT22;56333;51.306;17.056;2023-05-07T07:18:26;9.73;75.38
69225;DHT22;56333;51.306;17.056;2023-05-07T07:19:56;9.79;75.45
69225;DHT22;56333;51.306;17.056;2023-05-07T07:21:27;9.88;75.38
69225;DHT22;56333;51.306;17.056;2023-05-07T07:22:58;9.92;74.95
69225;DHT22;56333;51.306;17.056;2023-05-07T07:24:27;9.91;74.78
69225;DHT22;56333;51.306;17.056;2023-05-07T07:25:58;9.90;74.85
69225;DHT22;56333;51.306;17.056;2023-05-07T07:27:26;9.83;74.82
69225;DHT22;56333;51.306;17.056;2023-05-07T07:28:55;9.84;74.82
69225;DHT22;56333;51.306;17.056;2023-05-07T07:30:25;9.84;75.07
69225;DHT22;56333;51.306;17.056;2023-05-07T07:31:54;9.88;75.32
69225;DHT22;56333;51.306;17.056;2023-05-07T07:33:24;9.90;75.25
69225;DHT22;56333;51.306;17.056;2023-05-07T07:34:54;9.90;75.07
69225;DHT22;56333;51.306;17.056;2023-05-07T07:36:25;9.93;74.90
69225;DHT22;56333;51.306;17.056;2023-05-07T07:37:54;9.89;74.75
69225;DHT22;56333;51.306;17.056;2023-05-07T07:39:24;9.85;74.45
69225;DHT22;56333;51.306;17.056;2023-05-07T07:40:53;9.82;74.63
69225;DHT22;56333;51.306;17.056;2023-05-07T07:42:22;9.82;74.68
69225;DHT22;56333;51.306;17.056;2023-05-07T07:43:51;9.81;74.53
69225;DHT22;56333;51.306;17.056;2023-05-07T07:45:21;9.82;74.68
69225;DHT22;56333;51.306;17.056;2023-05-07T07:46:50;9.82;74.93
69225;DHT22;56333;51.306;17.056;2023-05-07T07:48:19;9.88;75.00
69225;DHT22;56333;51.306;17.056;2023-05-07T07:49:49;9.90;75.07
69225;DHT22;56333;51.306;17.056;2023-05-07T07:51:18;9.91;74.80
69225;DHT22;56333;51.306;17.056;2023-05-07T07:52:48;9.90;74.63
69225;DHT22;56333;51.306;17.056;2023-05-07T07:54:17;9.89;74.72
69225;DHT22;56333;51.306;17.056;2023-05-07T07:55:47;9.85;74.75
69225;DHT22;56333;51.306;17.056;2023-05-07T07:57:17;9.84;74.70
69225;DHT22;56333;51.306;17.056;2023-05-07T07:58:46;9.82;74.63
69225;DHT22;56333;51.306;17.056;2023-05-07T08:00:17;9.79;74.93
69225;DHT22;56333;51.306;17.056;2023-05-07T08:01:47;9.78;75.30
69225;DHT22;56333;51.306;17.056;2023-05-07T08:03:20;9.82;75.50
69225;DHT22;56333;51.306;17.056;2023-05-07T08:04:51;9.88;75.40
69225;DHT22;56333;51.306;17.056;2023-05-07T08:06:21;9.90;75.53
69225;DHT22;56333;51.306;17.056;2023-05-07T08:07:51;9.93;75.45
69225;DHT22;56333;51.306;17.056;2023-05-07T08:09:24;9.98;75.20
69225;DHT22;56333;51.306;17.056;2023-05-07T08:10:53;9.97;75.05
69225;DHT22;56333;51.306;17.056;2023-05-07T08:12:25;9.97;74.97
69225;DHT22;56333;51.306;17.056;2023-05-07T08:13:55;9.93;74.82
69225;DHT22;56333;51.306;17.056;2023-05-07T08:15:24;9.90;75.03
69225;DHT22;56333;51.306;17.056;2023-05-07T08:16:54;9.90;75.13
69225;DHT22;56333;51.306;17.056;2023-05-07T08:18:22;9.86;75.13
69225;DHT22;56333;51.306;17.056;2023-05-07T08:19:53;9.83;75.20
69225;DHT22;56333;51.306;17.056;2023-05-07T08:21:22;9.81;75.10
69225;DHT22;56333;51.306;17.056;2023-05-07T08:22:52;9.77;74.95
69225;DHT22;56333;51.306;17.056;2023-05-07T08:24:21;9.76;75.05
69225;DHT22;56333;51.306;17.056;2023-05-07T08:25:50;9.75;75.20
69225;DHT22;56333;51.306;17.056;2023-05-07T08:27:18;9.75;74.97
69225;DHT22;56333;51.306;17.056;2023-05-07T08:28:47;9.72;74.95
69225;DHT22;56333;51.306;17.056;2023-05-07T08:30:17;9.75;75.22
69225;DHT22;56333;51.306;17.056;2023-05-07T08:31:46;9.77;75.15
69225;DHT22;56333;51.306;17.056;2023-05-07T08:33:15;9.81;74.88
69225;DHT22;56333;51.306;17.056;2023-05-07T08:34:44;9.81;74.75
69225;DHT22;56333;51.306;17.056;2023-05-07T08:36:13;9.82;74.68
69225;DHT22;56333;51.306;17.056;2023-05-07T08:37:43;9.87;74.53
69225;DHT22;56333;51.306;17.056;2023-05-07T08:39:13;9.91;74.47
69225;DHT22;56333;51.306;17.056;2023-05-07T08:40:43;9.92;74.28
69225;DHT22;56333;51.306;17.056;2023-05-07T08:42:15;9.89;73.97
69225;DHT22;56333;51.306;17.056;2023-05-07T08:43:47;9.85;73.78
69225;DHT22;56333;51.306;17.056;2023-05-07T08:45:17;9.84;73.82
69225;DHT22;56333;51.306;17.056;2023-05-07T08:46:47;9.82;73.88
69225;DHT22;56333;51.306;17.056;2023-05-07T08:48:19;9.81;73.93
69225;DHT22;56333;51.306;17.056;2023-05-07T08:49:57;9.85;73.93
69225;DHT22;56333;51.306;17.056;2023-05-07T08:51:27;9.85;73.78
69225;DHT22;56333;51.306;17.056;2023-05-07T08:52:56;9.84;73.75
69225;DHT22;56333;51.306;17.056;2023-05-07T08:54:25;9.85;73.55
69225;DHT22;56333;51.306;17.056;2023-05-07T08:55:54;9.85;73.47
69225;DHT22;56333;51.306;17.056;2023-05-07T08:57:24;9.85;73.45
69225;DHT22;56333;51.306;17.056;2023-05-07T08:58:53;9.86;73.35
69225;DHT22;56333;51.306;17.056;2023-05-07T09:00:23;9.91;73.18
69225;DHT22;56333;51.306;17.056;2023-05-07T09:01:53;9.95;73.25
69225;DHT22;56333;51.306;17.056;2023-05-07T09:03:22;10.01;73.43
69225;DHT22;56333;51.306;17.056;2023-05-07T09:04:51;10.09;73.07
69225;DHT22;56333;51.306;17.056;2023-05-07T09:06:20;10.11;72.90
69225;DHT22;56333;51.306;17.056;2023-05-07T09:07:51;10.09;72.63
69225;DHT22;56333;51.306;17.056;2023-05-07T09:09:22;10.10;72.35
69225;DHT22;56333;51.306;17.056;2023-05-07T09:10:52;10.08;72.43
69225;DHT22;56333;51.306;17.056;2023-05-07T09:12:21;10.09;72.47
69225;DHT22;56333;51.306;17.056;2023-05-07T09:13:50;10.10;72.38
69225;DHT22;56333;51.306;17.056;2023-05-07T09:15:25;10.11;72.25
69225;DHT22;56333;51.306;17.056;2023-05-07T09:16:55;10.13;71.93
69225;DHT22;56333;51.306;17.056;2023-05-07T09:18:24;10.08;71.80
69225;DHT22;56333;51.306;17.056;2023-05-07T09:19:53;10.05;71.88
69225;DHT22;56333;51.306;17.056;2023-05-07T09:21:22;9.96;71.95
69225;DHT22;56333;51.306;17.056;2023-05-07T09:22:52;10.00;72.25
69225;DHT22;56333;51.306;17.056;2023-05-07T09:24:23;10.01;72.63
69225;DHT22;56333;51.306;17.056;2023-05-07T09:25:55;10.06;72.72
69225;DHT22;56333;51.306;17.056;2023-05-07T09:27:30;10.09;72.43
69225;DHT22;56333;51.306;17.056;2023-05-07T09:29:00;10.06;72.20